Terminal Aerodrome Forecast
Issued by NWS

Home | Current Version | Previous Version | Text Only | Print | Product List | Glossary On
Versions: 1 2 3 4 5 6 7 8 9 10 11 12 13 14 15 16 17 18
000
FTUS43 KICT 031135
TAFSLN
TAF
KSLN 031135Z 0312/0412 30008KT 6SM BR BKN007
      TEMPO 0312/0316 4SM BR OVC004
     FM031600 02006KT P6SM FEW025 SCT040
     FM040100 09007KT P6SM FEW035=

USA.gov is the U.S. government's official web portal to all federal, state and local government web resources and services.